sensor_id;sensor_type;location;lat;lon;timestamp;temperature;humidity
15983;DHT22;14442;50.196;8.096;2023-02-11T00:01:56;22.90;35.40
15983;DHT22;14442;50.196;8.096;2023-02-11T00:04:24;22.90;35.50
15983;DHT22;14442;50.196;8.096;2023-02-11T00:06:51;23.00;35.70
15983;DHT22;14442;50.196;8.096;2023-02-11T00:09:19;22.90;35.70
15983;DHT22;14442;50.196;8.096;2023-02-11T00:11:45;23.00;35.80
15983;DHT22;14442;50.196;8.096;2023-02-11T00:14:12;23.00;35.60
15983;DHT22;14442;50.196;8.096;2023-02-11T00:16:39;23.10;35.60
15983;DHT22;14442;50.196;8.096;2023-02-11T00:19:06;23.00;35.20
15983;DHT22;14442;50.196;8.096;2023-02-11T00:21:33;23.10;35.10
15983;DHT22;14442;50.196;8.096;2023-02-11T00:23:59;23.10;35.40
15983;DHT22;14442;50.196;8.096;2023-02-11T00:26:29;23.10;34.70
15983;DHT22;14442;50.196;8.096;2023-02-11T00:28:56;23.20;34.80
15983;DHT22;14442;50.196;8.096;2023-02-11T00:31:24;23.20;34.70
15983;DHT22;14442;50.196;8.096;2023-02-11T00:33:51;23.20;34.50
15983;DHT22;14442;50.196;8.096;2023-02-11T00:38:50;23.40;34.50
15983;DHT22;14442;50.196;8.096;2023-02-11T00:41:18;23.30;34.30
15983;DHT22;14442;50.196;8.096;2023-02-11T00:43:46;23.30;34.20
15983;DHT22;14442;50.196;8.096;2023-02-11T00:46:14;23.40;34.10
15983;DHT22;14442;50.196;8.096;2023-02-11T00:48:41;23.40;34.10
15983;DHT22;14442;50.196;8.096;2023-02-11T00:51:08;23.40;33.90
15983;DHT22;14442;50.196;8.096;2023-02-11T00:53:34;23.50;33.90
15983;DHT22;14442;50.196;8.096;2023-02-11T00:56:01;23.50;33.90
15983;DHT22;14442;50.196;8.096;2023-02-11T00:58:28;23.60;33.90
15983;DHT22;14442;50.196;8.096;2023-02-11T01:00:56;23.50;33.70
15983;DHT22;14442;50.196;8.096;2023-02-11T01:03:23;23.60;33.80
15983;DHT22;14442;50.196;8.096;2023-02-11T01:05:50;23.60;33.60
15983;DHT22;14442;50.196;8.096;2023-02-11T01:08:16;23.70;33.70
15983;DHT22;14442;50.196;8.096;2023-02-11T01:10:43;23.70;33.60
15983;DHT22;14442;50.196;8.096;2023-02-11T01:13:10;23.70;33.50
15983;DHT22;14442;50.196;8.096;2023-02-11T01:15:37;23.70;33.40
15983;DHT22;14442;50.196;8.096;2023-02-11T01:18:05;23.80;33.50
15983;DHT22;14442;50.196;8.096;2023-02-11T01:20:31;23.80;34.10
15983;DHT22;14442;50.196;8.096;2023-02-11T01:22:58;23.80;33.30
15983;DHT22;14442;50.196;8.096;2023-02-11T01:25:25;23.90;33.40
15983;DHT22;14442;50.196;8.096;2023-02-11T01:27:51;23.90;33.40
15983;DHT22;14442;50.196;8.096;2023-02-11T01:30:18;23.90;33.30
15983;DHT22;14442;50.196;8.096;2023-02-11T01:32:45;23.90;33.20
15983;DHT22;14442;50.196;8.096;2023-02-11T01:35:13;24.00;33.20
15983;DHT22;14442;50.196;8.096;2023-02-11T01:37:39;24.00;33.20
15983;DHT22;14442;50.196;8.096;2023-02-11T01:40:12;24.00;33.10
15983;DHT22;14442;50.196;8.096;2023-02-11T01:42:39;24.10;33.20
15983;DHT22;14442;50.196;8.096;2023-02-11T01:48:06;24.10;33.10
15983;DHT22;14442;50.196;8.096;2023-02-11T01:50:35;24.10;33.10
15983;DHT22;14442;50.196;8.096;2023-02-11T01:53:03;24.20;33.10
15983;DHT22;14442;50.196;8.096;2023-02-11T01:55:43;24.20;33.10
15983;DHT22;14442;50.196;8.096;2023-02-11T01:58:31;24.20;33.00
15983;DHT22;14442;50.196;8.096;2023-02-11T02:01:02;24.20;33.00
15983;DHT22;14442;50.196;8.096;2023-02-11T02:03:31;24.20;33.00
15983;DHT22;14442;50.196;8.096;2023-02-11T02:06:04;24.20;33.00
15983;DHT22;14442;50.196;8.096;2023-02-11T02:08:37;24.30;33.00
15983;DHT22;14442;50.196;8.096;2023-02-11T02:11:04;24.30;33.00
15983;DHT22;14442;50.196;8.096;2023-02-11T02:13:33;24.30;33.00
15983;DHT22;14442;50.196;8.096;2023-02-11T02:16:01;24.30;33.00
15983;DHT22;14442;50.196;8.096;2023-02-11T02:18:35;24.30;33.00
15983;DHT22;14442;50.196;8.096;2023-02-11T02:24:30;24.30;33.00
15983;DHT22;14442;50.196;8.096;2023-02-11T02:27:18;24.30;33.00
15983;DHT22;14442;50.196;8.096;2023-02-11T02:29:58;24.30;33.00
15983;DHT22;14442;50.196;8.096;2023-02-11T02:32:38;24.30;33.00
15983;DHT22;14442;50.196;8.096;2023-02-11T02:35:14;24.30;33.00
15983;DHT22;14442;50.196;8.096;2023-02-11T02:37:50;24.30;33.10
15983;DHT22;14442;50.196;8.096;2023-02-11T02:40:19;24.30;33.00
15983;DHT22;14442;50.196;8.096;2023-02-11T02:42:48;24.30;33.10
15983;DHT22;14442;50.196;8.096;2023-02-11T02:45:15;24.30;33.10
15983;DHT22;14442;50.196;8.096;2023-02-11T02:47:43;24.30;33.10
15983;DHT22;14442;50.196;8.096;2023-02-11T02:50:13;24.30;33.10
15983;DHT22;14442;50.196;8.096;2023-02-11T02:52:45;24.30;33.10
15983;DHT22;14442;50.196;8.096;2023-02-11T02:55:24;24.30;33.20
15983;DHT22;14442;50.196;8.096;2023-02-11T02:58:22;24.20;33.10
15983;DHT22;14442;50.196;8.096;2023-02-11T03:00:58;24.20;33.00
15983;DHT22;14442;50.196;8.096;2023-02-11T03:03:34;24.30;33.20
15983;DHT22;14442;50.196;8.096;2023-02-11T03:06:10;24.20;33.10
15983;DHT22;14442;50.196;8.096;2023-02-11T03:08:41;24.20;33.10
15983;DHT22;14442;50.196;8.096;2023-02-11T03:11:10;24.20;33.00
15983;DHT22;14442;50.196;8.096;2023-02-11T03:13:39;24.20;33.10
15983;DHT22;14442;50.196;8.096;2023-02-11T03:16:08;24.20;33.10
15983;DHT22;14442;50.196;8.096;2023-02-11T03:18:40;24.20;33.10
15983;DHT22;14442;50.196;8.096;2023-02-11T03:21:08;24.10;33.00
15983;DHT22;14442;50.196;8.096;2023-02-11T03:23:39;24.20;33.10
15983;DHT22;14442;50.196;8.096;2023-02-11T03:26:11;24.20;33.20
15983;DHT22;14442;50.196;8.096;2023-02-11T03:28:44;24.10;33.10
15983;DHT22;14442;50.196;8.096;2023-02-11T03:31:17;24.20;33.20
15983;DHT22;14442;50.196;8.096;2023-02-11T03:33:56;24.10;33.10
15983;DHT22;14442;50.196;8.096;2023-02-11T03:36:30;24.10;33.20
15983;DHT22;14442;50.196;8.096;2023-02-11T03:38:59;24.10;33.10
15983;DHT22;14442;50.196;8.096;2023-02-11T03:41:28;24.10;33.20
15983;DHT22;14442;50.196;8.096;2023-02-11T03:43:57;24.10;33.20
15983;DHT22;14442;50.196;8.096;2023-02-11T03:46:29;24.10;33.20
15983;DHT22;14442;50.196;8.096;2023-02-11T03:49:02;24.00;33.20
15983;DHT22;14442;50.196;8.096;2023-02-11T03:51:30;24.00;33.20
15983;DHT22;14442;50.196;8.096;2023-02-11T03:54:00;24.00;33.20
15983;DHT22;14442;50.196;8.096;2023-02-11T03:56:31;24.00;33.20
15983;DHT22;14442;50.196;8.096;2023-02-11T03:58:58;24.00;33.20
15983;DHT22;14442;50.196;8.096;2023-02-11T04:01:25;23.90;33.20
15983;DHT22;14442;50.196;8.096;2023-02-11T04:03:51;23.90;33.20
15983;DHT22;14442;50.196;8.096;2023-02-11T04:06:19;23.90;33.20
15983;DHT22;14442;50.196;8.096;2023-02-11T04:08:46;23.90;33.20
15983;DHT22;14442;50.196;8.096;2023-02-11T04:11:13;23.90;33.20
15983;DHT22;14442;50.196;8.096;2023-02-11T04:13:39;23.90;33.20
15983;DHT22;14442;50.196;8.096;2023-02-11T04:16:06;23.90;33.20
15983;DHT22;14442;50.196;8.096;2023-02-11T04:18:33;23.90;33.30
15983;DHT22;14442;50.196;8.096;2023-02-11T04:20:59;23.80;33.20
15983;DHT22;14442;50.196;8.096;2023-02-11T04:23:27;23.80;33.20
15983;DHT22;14442;50.196;8.096;2023-02-11T04:25:54;23.80;33.20
15983;DHT22;14442;50.196;8.096;2023-02-11T04:28:21;23.80;33.20
15983;DHT22;14442;50.196;8.096;2023-02-11T04:30:48;23.80;33.20
15983;DHT22;14442;50.196;8.096;2023-02-11T04:33:16;23.80;33.20
15983;DHT22;14442;50.196;8.096;2023-02-11T04:35:42;23.80;33.30
15983;DHT22;14442;50.196;8.096;2023-02-11T04:38:09;23.80;33.20
15983;DHT22;14442;50.196;8.096;2023-02-11T04:40:37;23.70;33.20
15983;DHT22;14442;50.196;8.096;2023-02-11T04:43:05;23.70;33.10
15983;DHT22;14442;50.196;8.096;2023-02-11T04:45:32;23.80;33.30
15983;DHT22;14442;50.196;8.096;2023-02-11T04:48:00;23.70;33.30
15983;DHT22;14442;50.196;8.096;2023-02-11T04:50:27;23.70;33.30
15983;DHT22;14442;50.196;8.096;2023-02-11T04:52:53;23.70;33.30
15983;DHT22;14442;50.196;8.096;2023-02-11T04:55:20;23.70;33.30
15983;DHT22;14442;50.196;8.096;2023-02-11T04:57:48;23.70;33.30
15983;DHT22;14442;50.196;8.096;2023-02-11T05:00:16;23.60;33.30
15983;DHT22;14442;50.196;8.096;2023-02-11T05:02:42;23.60;33.30
15983;DHT22;14442;50.196;8.096;2023-02-11T05:05:09;23.60;33.30
15983;DHT22;14442;50.196;8.096;2023-02-11T05:07:36;23.60;33.30
15983;DHT22;14442;50.196;8.096;2023-02-11T05:10:03;23.60;33.30
15983;DHT22;14442;50.196;8.096;2023-02-11T05:12:29;23.60;33.40
15983;DHT22;14442;50.196;8.096;2023-02-11T05:14:57;23.60;33.40
15983;DHT22;14442;50.196;8.096;2023-02-11T05:17:24;23.50;33.30
15983;DHT22;14442;50.196;8.096;2023-02-11T05:19:50;23.50;33.30
15983;DHT22;14442;50.196;8.096;2023-02-11T05:22:17;23.50;33.40
15983;DHT22;14442;50.196;8.096;2023-02-11T05:24:45;23.50;33.30
15983;DHT22;14442;50.196;8.096;2023-02-11T05:27:12;23.40;33.20
15983;DHT22;14442;50.196;8.096;2023-02-11T05:29:38;23.40;33.30
15983;DHT22;14442;50.196;8.096;2023-02-11T05:32:07;23.40;33.30
15983;DHT22;14442;50.196;8.096;2023-02-11T05:34:33;23.40;33.30
15983;DHT22;14442;50.196;8.096;2023-02-11T05:37:00;23.40;33.30
15983;DHT22;14442;50.196;8.096;2023-02-11T05:39:27;23.40;33.40
15983;DHT22;14442;50.196;8.096;2023-02-11T05:41:53;23.40;33.40
15983;DHT22;14442;50.196;8.096;2023-02-11T05:44:20;23.30;33.30
15983;DHT22;14442;50.196;8.096;2023-02-11T05:46:47;23.30;34.00
15983;DHT22;14442;50.196;8.096;2023-02-11T05:49:18;23.30;33.40
15983;DHT22;14442;50.196;8.096;2023-02-11T05:51:44;23.30;33.40
15983;DHT22;14442;50.196;8.096;2023-02-11T05:54:11;23.30;33.50
15983;DHT22;14442;50.196;8.096;2023-02-11T05:56:38;23.20;33.40
15983;DHT22;14442;50.196;8.096;2023-02-11T05:59:05;23.20;33.40
15983;DHT22;14442;50.196;8.096;2023-02-11T06:01:31;23.20;33.50
15983;DHT22;14442;50.196;8.096;2023-02-11T06:03:58;23.20;33.50
15983;DHT22;14442;50.196;8.096;2023-02-11T06:06:26;23.10;33.40
15983;DHT22;14442;50.196;8.096;2023-02-11T06:08:53;23.10;33.40
15983;DHT22;14442;50.196;8.096;2023-02-11T06:11:20;23.10;33.40
15983;DHT22;14442;50.196;8.096;2023-02-11T06:13:47;23.10;33.50
15983;DHT22;14442;50.196;8.096;2023-02-11T06:16:14;23.10;33.50
15983;DHT22;14442;50.196;8.096;2023-02-11T06:18:40;23.10;33.50
15983;DHT22;14442;50.196;8.096;2023-02-11T06:21:08;23.00;33.40
15983;DHT22;14442;50.196;8.096;2023-02-11T06:23:36;23.00;33.40
15983;DHT22;14442;50.196;8.096;2023-02-11T06:26:03;23.00;33.50
15983;DHT22;14442;50.196;8.096;2023-02-11T06:28:31;23.00;33.50
15983;DHT22;14442;50.196;8.096;2023-02-11T06:31:04;22.90;33.50
15983;DHT22;14442;50.196;8.096;2023-02-11T06:33:30;22.90;33.50
15983;DHT22;14442;50.196;8.096;2023-02-11T06:35:57;22.90;33.50
15983;DHT22;14442;50.196;8.096;2023-02-11T06:38:24;22.90;33.50
15983;DHT22;14442;50.196;8.096;2023-02-11T06:40:52;22.90;33.60
15983;DHT22;14442;50.196;8.096;2023-02-11T06:43:18;22.90;33.60
15983;DHT22;14442;50.196;8.096;2023-02-11T06:45:51;22.90;33.60
15983;DHT22;14442;50.196;8.096;2023-02-11T06:48:18;22.80;33.50
15983;DHT22;14442;50.196;8.096;2023-02-11T06:50:45;22.80;33.70
15983;DHT22;14442;50.196;8.096;2023-02-11T06:53:12;22.80;33.60
15983;DHT22;14442;50.196;8.096;2023-02-11T06:55:38;22.80;33.60
15983;DHT22;14442;50.196;8.096;2023-02-11T06:58:06;22.70;33.50
15983;DHT22;14442;50.196;8.096;2023-02-11T07:00:33;22.60;33.70
15983;DHT22;14442;50.196;8.096;2023-02-11T07:03:00;22.60;33.90
15983;DHT22;14442;50.196;8.096;2023-02-11T07:05:26;22.60;34.50
15983;DHT22;14442;50.196;8.096;2023-02-11T07:07:53;22.60;33.70
15983;DHT22;14442;50.196;8.096;2023-02-11T07:10:20;22.60;33.80
15983;DHT22;14442;50.196;8.096;2023-02-11T07:12:46;22.60;33.80
15983;DHT22;14442;50.196;8.096;2023-02-11T07:15:14;22.70;33.90
15983;DHT22;14442;50.196;8.096;2023-02-11T07:17:41;22.50;33.90
15983;DHT22;14442;50.196;8.096;2023-02-11T07:20:08;22.60;33.90
15983;DHT22;14442;50.196;8.096;2023-02-11T07:22:36;22.60;33.90
15983;DHT22;14442;50.196;8.096;2023-02-11T07:25:04;22.50;33.80
15983;DHT22;14442;50.196;8.096;2023-02-11T07:27:31;22.60;33.90
15983;DHT22;14442;50.196;8.096;2023-02-11T07:29:57;22.50;33.90
15983;DHT22;14442;50.196;8.096;2023-02-11T07:32:25;22.60;34.00
15983;DHT22;14442;50.196;8.096;2023-02-11T07:34:52;22.50;33.90
15983;DHT22;14442;50.196;8.096;2023-02-11T07:37:19;22.60;33.90
15983;DHT22;14442;50.196;8.096;2023-02-11T07:39:45;22.60;33.90
15983;DHT22;14442;50.196;8.096;2023-02-11T07:42:12;22.60;33.80
15983;DHT22;14442;50.196;8.096;2023-02-11T07:44:39;22.60;33.70
15983;DHT22;14442;50.196;8.096;2023-02-11T07:47:05;22.60;33.60
15983;DHT22;14442;50.196;8.096;2023-02-11T07:49:33;22.70;33.70
15983;DHT22;14442;50.196;8.096;2023-02-11T07:52:00;22.70;33.60
15983;DHT22;14442;50.196;8.096;2023-02-11T07:54:27;22.70;33.60
15983;DHT22;14442;50.196;8.096;2023-02-11T07:56:53;22.80;33.60
15983;DHT22;14442;50.196;8.096;2023-02-11T07:59:20;22.80;33.50
15983;DHT22;14442;50.196;8.096;2023-02-11T08:01:49;22.90;33.50
15983;DHT22;14442;50.196;8.096;2023-02-11T08:04:15;22.90;33.40
15983;DHT22;14442;50.196;8.096;2023-02-11T08:06:43;23.00;33.40
15983;DHT22;14442;50.196;8.096;2023-02-11T08:09:13;23.00;33.30
15983;DHT22;14442;50.196;8.096;2023-02-11T08:11:41;23.10;33.30
15983;DHT22;14442;50.196;8.096;2023-02-11T08:14:08;23.10;33.30
15983;DHT22;14442;50.196;8.096;2023-02-11T08:16:36;23.10;33.30
15983;DHT22;14442;50.196;8.096;2023-02-11T08:19:07;23.10;33.30
15983;DHT22;14442;50.196;8.096;2023-02-11T08:21:35;23.10;33.20
15983;DHT22;14442;50.196;8.096;2023-02-11T08:24:04;23.10;33.30
15983;DHT22;14442;50.196;8.096;2023-02-11T08:26:31;23.10;33.20
15983;DHT22;14442;50.196;8.096;2023-02-11T08:29:00;23.20;33.30
15983;DHT22;14442;50.196;8.096;2023-02-11T08:31:29;23.20;33.30
15983;DHT22;14442;50.196;8.096;2023-02-11T08:33:57;23.20;33.30
15983;DHT22;14442;50.196;8.096;2023-02-11T08:36:26;23.20;33.30
15983;DHT22;14442;50.196;8.096;2023-02-11T08:38:53;23.20;33.20
15983;DHT22;14442;50.196;8.096;2023-02-11T08:41:21;23.30;33.30
15983;DHT22;14442;50.196;8.096;2023-02-11T08:43:48;23.20;33.20
15983;DHT22;14442;50.196;8.096;2023-02-11T08:46:16;23.30;33.30
15983;DHT22;14442;50.196;8.096;2023-02-11T08:48:43;23.30;33.40
15983;DHT22;14442;50.196;8.096;2023-02-11T08:51:13;23.30;33.30
15983;DHT22;14442;50.196;8.096;2023-02-11T08:53:41;23.30;33.40
15983;DHT22;14442;50.196;8.096;2023-02-11T08:56:09;23.30;33.30
15983;DHT22;14442;50.196;8.096;2023-02-11T08:58:37;23.30;33.30
15983;DHT22;14442;50.196;8.096;2023-02-11T09:01:08;23.30;33.40
15983;DHT22;14442;50.196;8.096;2023-02-11T09:03:35;23.30;33.40
15983;DHT22;14442;50.196;8.096;2023-02-11T09:06:04;23.30;33.30
15983;DHT22;14442;50.196;8.096;2023-02-11T09:08:32;23.30;33.40
15983;DHT22;14442;50.196;8.096;2023-02-11T09:10:59;23.30;33.40
15983;DHT22;14442;50.196;8.096;2023-02-11T09:13:25;23.30;33.50
15983;DHT22;14442;50.196;8.096;2023-02-11T09:15:53;23.30;33.40
15983;DHT22;14442;50.196;8.096;2023-02-11T09:18:20;23.30;33.40
15983;DHT22;14442;50.196;8.096;2023-02-11T09:20:46;23.30;33.40
15983;DHT22;14442;50.196;8.096;2023-02-11T09:23:13;23.30;33.40
15983;DHT22;14442;50.196;8.096;2023-02-11T09:25:40;23.40;33.50
15983;DHT22;14442;50.196;8.096;2023-02-11T09:28:07;23.40;33.50
15983;DHT22;14442;50.196;8.096;2023-02-11T09:30:35;23.40;33.80
15983;DHT22;14442;50.196;8.096;2023-02-11T09:33:03;23.40;33.50
15983;DHT22;14442;50.196;8.096;2023-02-11T09:35:30;23.50;33.40
15983;DHT22;14442;50.196;8.096;2023-02-11T09:37:58;23.50;34.10
15983;DHT22;14442;50.196;8.096;2023-02-11T09:40:24;23.40;33.40
15983;DHT22;14442;50.196;8.096;2023-02-11T09:42:54;23.40;33.50
15983;DHT22;14442;50.196;8.096;2023-02-11T09:45:25;23.40;33.60
15983;DHT22;14442;50.196;8.096;2023-02-11T09:47:55;23.40;33.60
15983;DHT22;14442;50.196;8.096;2023-02-11T09:50:28;23.30;33.80
15983;DHT22;14442;50.196;8.096;2023-02-11T09:52:58;23.30;33.50
15983;DHT22;14442;50.196;8.096;2023-02-11T09:55:28;23.30;33.60
15983;DHT22;14442;50.196;8.096;2023-02-11T09:57:56;23.40;33.70
15983;DHT22;14442;50.196;8.096;2023-02-11T10:00:26;23.30;33.60
15983;DHT22;14442;50.196;8.096;2023-02-11T10:06:16;23.30;33.60
15983;DHT22;14442;50.196;8.096;2023-02-11T10:08:52;23.30;33.60
15983;DHT22;14442;50.196;8.096;2023-02-11T10:11:27;23.30;33.60
15983;DHT22;14442;50.196;8.096;2023-02-11T10:14:02;23.40;33.80
15983;DHT22;14442;50.196;8.096;2023-02-11T10:16:42;23.40;33.70
15983;DHT22;14442;50.196;8.096;2023-02-11T10:19:30;23.40;33.70
15983;DHT22;14442;50.196;8.096;2023-02-11T10:22:06;23.40;33.70
15983;DHT22;14442;50.196;8.096;2023-02-11T10:24:35;23.40;33.80
15983;DHT22;14442;50.196;8.096;2023-02-11T10:27:07;23.40;33.80
15983;DHT22;14442;50.196;8.096;2023-02-11T10:29:40;23.40;33.80
15983;DHT22;14442;50.196;8.096;2023-02-11T10:32:22;23.40;33.80
15983;DHT22;14442;50.196;8.096;2023-02-11T10:34:55;23.50;33.90
15983;DHT22;14442;50.196;8.096;2023-02-11T10:37:25;23.70;34.00
15983;DHT22;14442;50.196;8.096;2023-02-11T10:39:52;23.90;34.00
15983;DHT22;14442;50.196;8.096;2023-02-11T10:42:18;24.10;34.70
15983;DHT22;14442;50.196;8.096;2023-02-11T10:44:56;24.40;34.40
15983;DHT22;14442;50.196;8.096;2023-02-11T10:47:26;24.60;34.50
15983;DHT22;14442;50.196;8.096;2023-02-11T10:49:54;24.90;34.90
15983;DHT22;14442;50.196;8.096;2023-02-11T10:52:29;25.10;35.20
15983;DHT22;14442;50.196;8.096;2023-02-11T10:54:59;24.70;34.90
15983;DHT22;14442;50.196;8.096;2023-02-11T10:57:29;24.50;35.40
15983;DHT22;14442;50.196;8.096;2023-02-11T11:00:01;24.30;35.60
15983;DHT22;14442;50.196;8.096;2023-02-11T11:02:30;24.20;35.90
15983;DHT22;14442;50.196;8.096;2023-02-11T11:05:00;24.10;36.00
15983;DHT22;14442;50.196;8.096;2023-02-11T11:07:30;24.20;36.40
15983;DHT22;14442;50.196;8.096;2023-02-11T11:10:01;24.10;36.50
15983;DHT22;14442;50.196;8.096;2023-02-11T11:12:35;24.20;36.50
15983;DHT22;14442;50.196;8.096;2023-02-11T11:15:15;24.20;36.50
15983;DHT22;14442;50.196;8.096;2023-02-11T11:17:43;24.20;36.60
15983;DHT22;14442;50.196;8.096;2023-02-11T11:20:17;24.20;36.50
15983;DHT22;14442;50.196;8.096;2023-02-11T11:22:47;24.30;36.70
15983;DHT22;14442;50.196;8.096;2023-02-11T11:25:25;24.20;36.50
15983;DHT22;14442;50.196;8.096;2023-02-11T11:27:55;24.20;36.70
15983;DHT22;14442;50.196;8.096;2023-02-11T11:30:26;24.20;36.70
15983;DHT22;14442;50.196;8.096;2023-02-11T11:32:53;24.30;36.70
15983;DHT22;14442;50.196;8.096;2023-02-11T11:35:24;24.30;36.60
15983;DHT22;14442;50.196;8.096;2023-02-11T11:37:58;24.30;37.40
15983;DHT22;14442;50.196;8.096;2023-02-11T11:40:28;24.30;37.50
15983;DHT22;14442;50.196;8.096;2023-02-11T11:43:14;24.30;37.70
15983;DHT22;14442;50.196;8.096;2023-02-11T11:45:52;24.40;37.70
15983;DHT22;14442;50.196;8.096;2023-02-11T11:48:22;24.70;37.80
15983;DHT22;14442;50.196;8.096;2023-02-11T11:50:52;25.00;37.40
15983;DHT22;14442;50.196;8.096;2023-02-11T11:53:24;25.10;37.10
15983;DHT22;14442;50.196;8.096;2023-02-11T11:55:59;25.00;37.20
15983;DHT22;14442;50.196;8.096;2023-02-11T11:58:29;24.70;37.90
15983;DHT22;14442;50.196;8.096;2023-02-11T12:01:03;24.60;37.50
15983;DHT22;14442;50.196;8.096;2023-02-11T12:04:01;24.50;37.20
15983;DHT22;14442;50.196;8.096;2023-02-11T12:06:38;24.40;37.10
15983;DHT22;14442;50.196;8.096;2023-02-11T12:09:20;24.30;36.90
15983;DHT22;14442;50.196;8.096;2023-02-11T12:12:00;24.30;36.90
15983;DHT22;14442;50.196;8.096;2023-02-11T12:14:36;24.30;36.80
15983;DHT22;14442;50.196;8.096;2023-02-11T12:17:13;24.30;36.90
15983;DHT22;14442;50.196;8.096;2023-02-11T12:20:01;24.30;36.80
15983;DHT22;14442;50.196;8.096;2023-02-11T12:22:38;24.30;36.90
15983;DHT22;14442;50.196;8.096;2023-02-11T12:25:26;24.30;36.80
15983;DHT22;14442;50.196;8.096;2023-02-11T12:28:05;24.20;36.70
15983;DHT22;14442;50.196;8.096;2023-02-11T12:30:45;24.20;36.70
15983;DHT22;14442;50.196;8.096;2023-02-11T12:33:20;24.20;36.50
15983;DHT22;14442;50.196;8.096;2023-02-11T12:35:57;24.30;36.70
15983;DHT22;14442;50.196;8.096;2023-02-11T12:41:30;24.20;36.50
15983;DHT22;14442;50.196;8.096;2023-02-11T12:44:30;24.20;36.50
15983;DHT22;14442;50.196;8.096;2023-02-11T12:47:09;24.20;36.30
15983;DHT22;14442;50.196;8.096;2023-02-11T12:49:48;24.20;36.30
15983;DHT22;14442;50.196;8.096;2023-02-11T12:52:27;24.20;36.20
15983;DHT22;14442;50.196;8.096;2023-02-11T12:54:57;24.30;36.30
15983;DHT22;14442;50.196;8.096;2023-02-11T12:57:29;24.20;36.20
15983;DHT22;14442;50.196;8.096;2023-02-11T13:00:02;24.20;36.20
15983;DHT22;14442;50.196;8.096;2023-02-11T13:02:38;24.20;36.20
15983;DHT22;14442;50.196;8.096;2023-02-11T13:05:17;24.20;36.10
15983;DHT22;14442;50.196;8.096;2023-02-11T13:07:46;24.20;36.00
15983;DHT22;14442;50.196;8.096;2023-02-11T13:10:23;24.20;36.00
15983;DHT22;14442;50.196;8.096;2023-02-11T13:12:53;24.30;36.10
15983;DHT22;14442;50.196;8.096;2023-02-11T13:15:40;24.20;36.10
15983;DHT22;14442;50.196;8.096;2023-02-11T13:18:16;24.20;35.90
15983;DHT22;14442;50.196;8.096;2023-02-11T13:20:48;24.20;36.00
15983;DHT22;14442;50.196;8.096;2023-02-11T13:23:22;24.20;35.90
15983;DHT22;14442;50.196;8.096;2023-02-11T13:25:55;24.20;36.00
15983;DHT22;14442;50.196;8.096;2023-02-11T13:28:31;24.20;36.00
15983;DHT22;14442;50.196;8.096;2023-02-11T13:31:01;24.10;35.90
15983;DHT22;14442;50.196;8.096;2023-02-11T13:33:33;24.10;35.90
15983;DHT22;14442;50.196;8.096;2023-02-11T13:36:12;24.10;35.80
15983;DHT22;14442;50.196;8.096;2023-02-11T13:38:40;24.10;35.80
15983;DHT22;14442;50.196;8.096;2023-02-11T13:41:16;24.10;35.90
15983;DHT22;14442;50.196;8.096;2023-02-11T13:43:57;24.10;35.80
15983;DHT22;14442;50.196;8.096;2023-02-11T13:46:25;24.10;35.80
15983;DHT22;14442;50.196;8.096;2023-02-11T13:48:53;24.10;35.80
15983;DHT22;14442;50.196;8.096;2023-02-11T13:51:34;24.10;35.80
15983;DHT22;14442;50.196;8.096;2023-02-11T13:54:02;24.10;35.80
15983;DHT22;14442;50.196;8.096;2023-02-11T13:56:32;24.10;35.80
15983;DHT22;14442;50.196;8.096;2023-02-11T13:59:03;24.10;35.80
15983;DHT22;14442;50.196;8.096;2023-02-11T14:01:41;24.10;35.80
15983;DHT22;14442;50.196;8.096;2023-02-11T14:04:20;24.00;35.80
15983;DHT22;14442;50.196;8.096;2023-02-11T14:07:23;24.00;35.70
15983;DHT22;14442;50.196;8.096;2023-02-11T14:10:48;24.00;35.80
15983;DHT22;14442;50.196;8.096;2023-02-11T14:13:23;24.00;35.80
15983;DHT22;14442;50.196;8.096;2023-02-11T14:16:05;24.00;35.70
15983;DHT22;14442;50.196;8.096;2023-02-11T14:18:37;23.90;35.70
15983;DHT22;14442;50.196;8.096;2023-02-11T14:21:10;24.00;35.70
15983;DHT22;14442;50.196;8.096;2023-02-11T14:23:39;23.90;35.70
15983;DHT22;14442;50.196;8.096;2023-02-11T14:26:24;23.90;35.80
15983;DHT22;14442;50.196;8.096;2023-02-11T14:28:59;23.90;35.70
15983;DHT22;14442;50.196;8.096;2023-02-11T14:31:34;23.90;35.70
15983;DHT22;14442;50.196;8.096;2023-02-11T14:34:13;23.90;35.70
15983;DHT22;14442;50.196;8.096;2023-02-11T14:37:01;23.80;35.70
15983;DHT22;14442;50.196;8.096;2023-02-11T14:39:46;23.80;35.70
15983;DHT22;14442;50.196;8.096;2023-02-11T14:42:19;23.80;35.60
15983;DHT22;14442;50.196;8.096;2023-02-11T14:44:48;23.80;35.70
15983;DHT22;14442;50.196;8.096;2023-02-11T14:47:20;23.70;35.60
15983;DHT22;14442;50.196;8.096;2023-02-11T14:49:48;23.80;35.60
15983;DHT22;14442;50.196;8.096;2023-02-11T14:52:21;23.60;35.80
15983;DHT22;14442;50.196;8.096;2023-02-11T14:54:57;23.60;35.60
15983;DHT22;14442;50.196;8.096;2023-02-11T14:57:26;23.60;35.50
15983;DHT22;14442;50.196;8.096;2023-02-11T14:59:55;23.70;36.00
15983;DHT22;14442;50.196;8.096;2023-02-11T15:02:28;23.70;36.40
15983;DHT22;14442;50.196;8.096;2023-02-11T15:05:14;23.70;36.40
15983;DHT22;14442;50.196;8.096;2023-02-11T15:07:44;23.70;36.30
15983;DHT22;14442;50.196;8.096;2023-02-11T15:10:21;23.70;36.10
15983;DHT22;14442;50.196;8.096;2023-02-11T15:12:52;23.60;36.10
15983;DHT22;14442;50.196;8.096;2023-02-11T15:15:18;23.60;36.40
15983;DHT22;14442;50.196;8.096;2023-02-11T15:17:47;23.60;36.30
15983;DHT22;14442;50.196;8.096;2023-02-11T15:20:20;23.60;36.30
15983;DHT22;14442;50.196;8.096;2023-02-11T15:22:51;23.60;36.40
15983;DHT22;14442;50.196;8.096;2023-02-11T15:25:20;23.60;36.40
15983;DHT22;14442;50.196;8.096;2023-02-11T15:27:49;23.60;36.50
15983;DHT22;14442;50.196;8.096;2023-02-11T15:30:26;23.60;36.50
15983;DHT22;14442;50.196;8.096;2023-02-11T15:32:56;23.50;37.30
15983;DHT22;14442;50.196;8.096;2023-02-11T15:35:25;23.50;37.70
15983;DHT22;14442;50.196;8.096;2023-02-11T15:37:53;23.50;38.60
15983;DHT22;14442;50.196;8.096;2023-02-11T15:40:22;23.40;38.70
15983;DHT22;14442;50.196;8.096;2023-02-11T15:42:57;23.40;38.50
15983;DHT22;14442;50.196;8.096;2023-02-11T15:45:25;23.40;38.00
15983;DHT22;14442;50.196;8.096;2023-02-11T15:48:04;23.50;38.20
15983;DHT22;14442;50.196;8.096;2023-02-11T15:50:34;23.70;37.50
15983;DHT22;14442;50.196;8.096;2023-02-11T15:53:05;23.60;36.80
15983;DHT22;14442;50.196;8.096;2023-02-11T15:55:42;23.60;36.80
15983;DHT22;14442;50.196;8.096;2023-02-11T15:58:09;23.60;36.70
15983;DHT22;14442;50.196;8.096;2023-02-11T16:00:45;23.80;36.60
15983;DHT22;14442;50.196;8.096;2023-02-11T16:03:21;24.10;36.20
15983;DHT22;14442;50.196;8.096;2023-02-11T16:05:49;24.00;36.10
15983;DHT22;14442;50.196;8.096;2023-02-11T16:08:21;23.50;36.10